createdAt,value
2019-04-05T00:01:18.994Z,57.06
2019-04-05T00:04:24.665Z,56.12
2019-04-05T00:07:30.427Z,56.00
2019-04-05T00:10:36.194Z,56.49
2019-04-05T00:13:41.851Z,57.03
2019-04-05T00:16:47.714Z,57.26
2019-04-05T00:19:53.373Z,57.71
2019-04-05T00:22:59.080Z,57.74
2019-04-05T00:26:04.899Z,58.05
2019-04-05T00:29:10.687Z,57.89
2019-04-05T00:32:16.361Z,58.07
2019-04-05T00:35:22.078Z,57.25
2019-04-05T00:38:27.758Z,57.38
2019-04-05T00:41:33.444Z,57.11
2019-04-05T00:44:39.202Z,57.49
2019-04-05T00:47:45.021Z,57.15
2019-04-05T00:50:50.802Z,57.22
2019-04-05T00:53:56.598Z,57.11
2019-04-05T00:57:02.381Z,58.93
2019-04-05T01:00:09.880Z,57.56
2019-04-05T01:03:15.584Z,58.10
2019-04-05T01:06:21.419Z,59.29
2019-04-05T01:09:27.261Z,59.01
2019-04-05T01:12:34.666Z,58.04
2019-04-05T01:15:41.359Z,59.07
2019-04-05T01:18:47.253Z,58.37
2019-04-05T01:21:56.239Z,57.31
2019-04-05T01:25:02.333Z,56.76
2019-04-05T01:28:08.121Z,56.41
2019-04-05T01:31:13.822Z,56.67
2019-04-05T01:34:19.736Z,58.91
2019-04-05T01:37:26.347Z,57.70
2019-04-05T01:40:34.392Z,56.68
2019-04-05T01:43:40.137Z,57.39
2019-04-05T01:46:46.209Z,57.61
2019-04-05T01:49:52.031Z,56.75
2019-04-05T01:52:57.826Z,57.47
2019-04-05T01:56:03.637Z,57.20
2019-04-05T01:59:09.320Z,56.90
2019-04-05T02:02:15.199Z,57.00
2019-04-05T02:05:21.057Z,57.52
2019-04-05T02:08:27.142Z,57.37
2019-04-05T02:11:33.050Z,57.21
2019-04-05T02:14:38.856Z,56.11
2019-04-05T02:17:44.512Z,56.77
2019-04-05T02:20:50.286Z,57.34
2019-04-05T02:23:55.942Z,56.51
2019-04-05T02:27:01.693Z,57.45
2019-04-05T02:30:07.620Z,58.33
2019-04-05T02:33:13.521Z,58.99
2019-04-05T02:36:19.339Z,57.65
2019-04-05T02:39:25.109Z,57.99
2019-04-05T02:42:31.099Z,57.56
2019-04-05T02:45:39.945Z,58.22
2019-04-05T02:48:49.047Z,59.91
2019-04-05T02:51:56.476Z,58.51
2019-04-05T02:55:02.447Z,58.62
2019-04-05T02:58:09.164Z,58.31
2019-04-05T03:01:15.101Z,57.27
2019-04-05T03:04:20.953Z,56.89
2019-04-05T03:07:28.582Z,57.47
2019-04-05T03:11:11.669Z,56.73
2019-04-05T03:14:18.274Z,56.95
2019-04-05T03:17:24.744Z,57.31
2019-04-05T03:20:30.749Z,59.13
2019-04-05T03:23:39.535Z,57.72
2019-04-05T03:26:50.173Z,58.00
2019-04-05T03:29:56.690Z,58.87
2019-04-05T03:33:02.757Z,58.32
2019-04-05T03:36:08.980Z,60.86
2019-04-05T03:39:14.758Z,59.20
2019-04-05T03:42:21.213Z,60.27
2019-04-05T03:45:27.973Z,58.70
2019-04-05T03:48:34.612Z,58.06
2019-04-05T03:51:40.598Z,57.68
2019-04-05T03:54:46.399Z,57.97
2019-04-05T03:57:52.272Z,57.75
2019-04-05T04:00:58.535Z,57.74
2019-04-05T04:04:04.377Z,57.55
2019-04-05T04:07:10.373Z,57.85
2019-04-05T04:10:18.880Z,58.35
2019-04-05T04:13:24.851Z,57.79
2019-04-05T04:16:30.740Z,57.68
2019-04-05T04:19:37.102Z,56.74
2019-04-05T04:22:43.097Z,56.66
2019-04-05T04:25:49.891Z,56.41
2019-04-05T04:28:55.959Z,57.63
2019-04-05T04:32:01.835Z,57.40
2019-04-05T04:35:08.172Z,57.62
2019-04-05T04:38:13.994Z,57.29
2019-04-05T04:41:19.775Z,57.39
2019-04-05T04:44:26.305Z,55.89
2019-04-05T04:47:32.756Z,56.22
2019-04-05T04:50:38.668Z,56.13
2019-04-05T04:53:45.273Z,55.68
2019-04-05T04:56:51.470Z,55.17
2019-04-05T04:59:57.459Z,56.62
2019-04-05T05:03:03.623Z,56.81
2019-04-05T05:06:09.841Z,55.22
2019-04-05T05:09:15.800Z,55.01
2019-04-05T05:12:21.620Z,55.88
2019-04-05T05:15:27.571Z,56.38
2019-04-05T05:18:33.473Z,56.41
2019-04-05T05:21:39.574Z,54.69
2019-04-05T05:24:45.352Z,55.15
2019-04-05T05:27:51.407Z,54.39
2019-04-05T05:30:57.287Z,54.23
2019-04-05T05:34:03.123Z,54.25
2019-04-05T05:37:09.939Z,52.15
2019-04-05T05:40:15.849Z,51.81
2019-04-05T05:43:23.843Z,51.31
2019-04-05T05:46:29.197Z,50.80
2019-04-05T05:49:34.867Z,51.44
2019-04-05T05:52:40.851Z,49.70
2019-04-05T05:55:46.579Z,49.39
2019-04-05T05:58:55.329Z,50.72
2019-04-05T06:01:59.675Z,49.72
2019-04-05T06:05:05.888Z,50.81
2019-04-05T06:08:11.567Z,50.47
2019-04-05T06:11:17.237Z,49.35
2019-04-05T06:14:22.951Z,50.51
2019-04-05T06:17:28.809Z,50.38
2019-04-05T06:20:34.448Z,50.35
2019-04-05T06:23:40.137Z,51.10
2019-04-05T06:26:45.819Z,49.59
2019-04-05T06:29:51.684Z,48.13
2019-04-05T06:32:57.439Z,47.81
2019-04-05T06:36:03.196Z,46.99
2019-04-05T06:39:09.406Z,47.69
2019-04-05T06:42:15.298Z,49.37
2019-04-05T06:45:21.043Z,52.02
2019-04-05T06:48:29.291Z,51.89
2019-04-05T06:51:34.426Z,50.07
2019-04-05T06:54:40.154Z,49.27
2019-04-05T06:57:45.856Z,48.08
2019-04-05T07:00:57.266Z,47.34
2019-04-05T07:03:58.991Z,46.60
2019-04-05T07:07:05.791Z,45.33
2019-04-05T07:10:11.687Z,44.96
2019-04-05T07:13:17.356Z,44.48
2019-04-05T07:16:23.125Z,43.89
2019-04-05T07:19:29.016Z,43.79
2019-04-05T07:22:39.067Z,44.42
2019-04-05T07:25:42.245Z,44.74
2019-04-05T07:28:48.052Z,44.56
2019-04-05T07:31:53.753Z,43.50
2019-04-05T07:35:00.455Z,43.93
2019-04-05T07:38:06.144Z,43.07
2019-04-05T07:41:11.891Z,42.59
2019-04-05T07:44:17.575Z,44.12
2019-04-05T07:47:23.279Z,42.69
2019-04-05T07:50:28.952Z,41.52
2019-04-05T07:53:34.640Z,41.82
2019-04-05T07:56:40.343Z,41.43
2019-04-05T07:59:46.026Z,41.26
2019-04-05T08:02:51.864Z,39.08
2019-04-05T08:05:57.560Z,38.99
2019-04-05T08:09:14.752Z,42.88
2019-04-05T08:12:21.038Z,42.05
2019-04-05T08:15:27.096Z,41.68
2019-04-05T08:18:32.781Z,44.10
2019-04-05T08:21:38.724Z,42.27
2019-04-05T08:24:44.465Z,40.73
2019-04-05T08:27:50.380Z,39.89
2019-04-05T08:30:56.067Z,40.85
2019-04-05T08:34:01.796Z,39.91
2019-04-05T08:37:07.724Z,39.13
2019-04-05T08:40:13.688Z,40.00
2019-04-05T08:43:19.451Z,39.90
2019-04-05T08:46:25.148Z,40.19
2019-04-05T08:49:30.843Z,41.36
2019-04-05T08:52:36.506Z,39.52
2019-04-05T08:55:42.233Z,38.78
2019-04-05T08:58:47.925Z,38.38
2019-04-05T09:01:53.647Z,38.42
2019-04-05T09:04:59.330Z,37.81
2019-04-05T09:08:05.170Z,38.07
2019-04-05T09:11:10.931Z,37.48
2019-04-05T09:14:16.739Z,37.34
2019-04-05T09:17:22.461Z,36.94
2019-04-05T09:20:28.157Z,37.09
2019-04-05T09:23:33.975Z,36.93
2019-04-05T09:26:39.682Z,36.67
2019-04-05T09:29:45.422Z,36.93
2019-04-05T09:32:51.101Z,36.32
2019-04-05T09:35:56.813Z,36.43
2019-04-05T09:39:02.693Z,37.89
2019-04-05T09:42:08.480Z,38.85
2019-04-05T09:45:14.327Z,38.01
2019-04-05T09:48:20.063Z,36.78
2019-04-05T09:51:25.803Z,37.85
2019-04-05T09:54:31.658Z,38.80
2019-04-05T09:57:37.373Z,38.54
2019-04-05T10:00:43.142Z,38.11
2019-04-05T10:03:49.003Z,37.58
2019-04-05T10:06:54.813Z,37.80
2019-04-05T10:10:00.528Z,36.74
2019-04-05T10:13:06.243Z,36.79
2019-04-05T10:16:12.104Z,35.57
2019-04-05T10:19:17.779Z,36.34
2019-04-05T10:22:23.486Z,35.55
2019-04-05T10:25:29.265Z,35.96
2019-04-05T10:28:34.996Z,37.03
2019-04-05T10:31:40.816Z,35.98
2019-04-05T10:34:47.362Z,36.53
2019-04-05T10:37:53.105Z,37.69
2019-04-05T10:40:58.915Z,37.91
2019-04-05T10:44:06.587Z,38.26
2019-04-05T10:47:12.374Z,37.70
2019-04-05T10:50:18.780Z,37.95
2019-04-05T10:53:24.464Z,37.88
2019-04-05T10:56:30.162Z,38.41
2019-04-05T10:59:38.415Z,38.93
2019-04-05T11:02:43.395Z,39.62
2019-04-05T11:05:49.553Z,40.19
2019-04-05T11:08:55.489Z,39.28
2019-04-05T11:12:01.396Z,39.40
2019-04-05T11:15:08.087Z,40.05
2019-04-05T11:18:13.889Z,39.46
2019-04-05T11:21:19.668Z,38.18
2019-04-05T11:24:25.414Z,38.51
2019-04-05T11:27:31.118Z,38.03
2019-04-05T11:30:46.137Z,37.47
2019-04-05T11:33:51.885Z,37.39
2019-04-05T11:36:58.370Z,37.59
2019-04-05T11:40:05.159Z,37.32
2019-04-05T11:43:11.094Z,36.95
2019-04-05T11:46:18.275Z,37.04
2019-04-05T11:49:25.321Z,37.29
2019-04-05T11:52:31.205Z,37.12
2019-04-05T11:55:37.073Z,36.05
2019-04-05T11:58:45.040Z,36.04
2019-04-05T12:01:57.870Z,35.78
2019-04-05T12:05:03.673Z,36.79
2019-04-05T12:08:09.491Z,36.13
2019-04-05T12:11:18.022Z,36.19
2019-04-05T12:14:30.250Z,36.25
2019-04-05T12:17:31.218Z,37.09
2019-04-05T12:20:47.866Z,37.34
2019-04-05T12:23:44.630Z,36.91
2019-04-05T12:26:50.342Z,37.11
2019-04-05T12:29:56.008Z,36.36
2019-04-05T12:33:12.998Z,36.36
2019-04-05T12:36:09.392Z,36.59
2019-04-05T12:39:15.425Z,35.52
2019-04-05T12:42:21.104Z,35.37
2019-04-05T12:45:26.837Z,35.37
2019-04-05T12:48:32.611Z,35.01
2019-04-05T12:51:38.296Z,34.42
2019-04-05T12:54:43.971Z,36.15
2019-04-05T12:57:49.676Z,35.59
2019-04-05T13:00:56.341Z,36.08
2019-04-05T13:04:02.712Z,35.95
2019-04-05T13:07:08.373Z,36.06
2019-04-05T13:10:14.257Z,36.29
2019-04-05T13:13:21.136Z,36.38
2019-04-05T13:16:26.865Z,36.18
2019-04-05T13:19:33.274Z,36.38
2019-04-05T13:22:39.017Z,36.66
2019-04-05T13:25:44.771Z,37.56
2019-04-05T13:28:50.511Z,37.37
2019-04-05T13:31:56.258Z,37.37
2019-04-05T13:35:01.939Z,37.85
2019-04-05T13:38:07.827Z,38.28
2019-04-05T13:41:13.512Z,39.42
2019-04-05T13:44:19.237Z,39.38
2019-04-05T13:47:24.916Z,38.68
2019-04-05T13:50:30.651Z,38.43
2019-04-05T13:53:36.360Z,38.80
2019-04-05T13:56:42.057Z,39.24
2019-04-05T13:59:49.025Z,39.06
2019-04-05T14:02:54.755Z,39.59
2019-04-05T14:06:00.500Z,39.45
2019-04-05T14:09:10.203Z,39.66
2019-04-05T14:12:16.554Z,39.18
2019-04-05T14:15:22.371Z,39.26
2019-04-05T14:18:28.150Z,39.19
2019-04-05T14:21:40.199Z,39.20
2019-04-05T14:24:41.244Z,39.27
2019-04-05T14:27:47.011Z,39.25
2019-04-05T14:30:52.795Z,39.45
2019-04-05T14:33:58.813Z,39.34
2019-04-05T14:37:04.489Z,39.43
2019-04-05T14:40:13.866Z,39.50
2019-04-05T14:43:21.177Z,39.99
2019-04-05T14:46:28.992Z,39.87
2019-04-05T14:49:33.630Z,40.54
2019-04-05T14:52:39.522Z,40.31
2019-04-05T14:55:45.213Z,40.21
2019-04-05T14:58:50.913Z,40.05
2019-04-05T15:01:56.716Z,40.10
2019-04-05T15:05:02.410Z,40.18
2019-04-05T15:08:08.564Z,40.01
2019-04-05T15:11:15.357Z,39.99
2019-04-05T15:14:21.172Z,39.93
2019-04-05T15:17:27.033Z,40.01
2019-04-05T15:20:34.843Z,39.77
2019-04-05T15:23:41.323Z,39.35
2019-04-05T15:26:47.252Z,38.98
2019-04-05T15:29:55.354Z,38.87
2019-04-05T15:33:03.508Z,38.85
2019-04-05T15:36:09.167Z,38.78
2019-04-05T15:39:14.883Z,38.69
2019-04-05T15:42:20.561Z,38.90
2019-04-05T15:45:26.422Z,38.86
2019-04-05T15:48:32.117Z,38.83
2019-04-05T15:51:37.917Z,38.73
2019-04-05T15:54:43.680Z,38.69
2019-04-05T15:57:49.366Z,38.29
2019-04-05T16:00:55.156Z,38.05
2019-04-05T16:04:02.714Z,37.98
2019-04-05T16:07:08.594Z,37.76
2019-04-05T16:10:14.887Z,37.60
2019-04-05T16:13:20.580Z,37.72
2019-04-05T16:16:26.704Z,37.88
2019-04-05T16:19:32.401Z,37.92
2019-04-05T16:22:38.110Z,38.18
2019-04-05T16:25:43.775Z,38.45
2019-04-05T16:28:49.461Z,38.60
2019-04-05T16:31:55.219Z,38.44
2019-04-05T16:35:00.906Z,38.58
2019-04-05T16:38:06.687Z,39.97
2019-04-05T16:41:12.443Z,40.22
2019-04-05T16:44:18.120Z,40.88
2019-04-05T16:47:23.850Z,40.80
2019-04-05T16:50:29.553Z,40.82
2019-04-05T16:53:35.322Z,40.98
2019-04-05T16:56:41.232Z,41.19
2019-04-05T16:59:46.969Z,41.40
2019-04-05T17:02:52.645Z,41.10
2019-04-05T17:05:58.804Z,41.42
2019-04-05T17:09:05.503Z,41.68
2019-04-05T17:12:12.989Z,41.86
2019-04-05T17:15:18.780Z,41.90
2019-04-05T17:18:24.517Z,42.42
2019-04-05T17:21:30.212Z,42.21
2019-04-05T17:24:35.881Z,42.31
2019-04-05T17:27:41.616Z,41.97
2019-04-05T17:30:47.600Z,42.55
2019-04-05T17:33:53.382Z,42.53
2019-04-05T17:36:59.170Z,42.88
2019-04-05T17:40:05.957Z,42.57
2019-04-05T17:43:12.084Z,42.53
2019-04-05T17:46:17.881Z,42.63
2019-04-05T17:49:23.583Z,43.04
2019-04-05T17:52:29.388Z,42.80
2019-04-05T17:55:35.349Z,43.12
2019-04-05T17:58:41.078Z,42.96
2019-04-05T18:01:46.894Z,43.13
2019-04-05T18:04:54.203Z,43.25
2019-04-05T18:08:00.057Z,43.23
2019-04-05T18:11:06.086Z,43.32
2019-04-05T18:14:12.086Z,43.58
2019-04-05T18:17:17.780Z,43.36
2019-04-05T18:20:23.464Z,43.21
2019-04-05T18:23:29.170Z,43.18
2019-04-05T18:26:34.961Z,43.26
2019-04-05T18:29:40.667Z,42.87
2019-04-05T18:32:46.512Z,42.86
2019-04-05T18:35:52.210Z,43.12
2019-04-05T18:38:57.948Z,43.44
2019-04-05T18:42:03.765Z,43.12
2019-04-05T18:45:09.622Z,43.47
2019-04-05T18:48:15.428Z,44.91
2019-04-05T18:51:21.195Z,45.43
2019-04-05T18:54:27.033Z,46.22
2019-04-05T18:57:32.694Z,45.83
2019-04-05T19:00:38.373Z,46.38
2019-04-05T19:03:44.084Z,46.58
2019-04-05T19:06:49.931Z,45.82
2019-04-05T19:09:55.710Z,46.16
2019-04-05T19:13:01.449Z,46.51
2019-04-05T19:16:07.287Z,46.40
2019-04-05T19:19:12.979Z,46.54
2019-04-05T19:22:18.693Z,46.95
2019-04-05T19:25:24.517Z,47.81
2019-04-05T19:28:30.231Z,47.31
2019-04-05T19:50:21.718Z,50.64
2019-04-05T19:53:27.393Z,50.63
2019-04-05T19:56:33.161Z,50.81
2019-04-05T19:59:38.821Z,51.56
2019-04-05T20:02:44.524Z,52.43
2019-04-05T20:05:50.220Z,52.73
2019-04-05T20:08:56.052Z,52.96
2019-04-05T20:12:01.787Z,53.13
2019-04-05T20:15:08.317Z,52.33
2019-04-05T20:18:14.020Z,52.01
2019-04-05T20:21:19.697Z,53.15
2019-04-05T20:24:25.700Z,53.86
2019-04-05T20:27:31.446Z,54.28
2019-04-05T20:30:37.212Z,53.59
2019-04-05T20:33:43.067Z,54.01
2019-04-05T20:36:48.819Z,54.49
2019-04-05T20:39:54.499Z,55.21
2019-04-05T20:43:00.285Z,54.04
2019-04-05T20:46:07.283Z,54.18
2019-04-05T20:49:12.978Z,54.19
2019-04-05T20:52:18.713Z,54.66
2019-04-05T20:55:24.389Z,55.25
2019-04-05T20:58:30.184Z,54.41
2019-04-05T21:01:35.840Z,55.18
2019-04-05T21:04:41.677Z,55.41
2019-04-05T21:07:47.435Z,55.51
2019-04-05T21:10:53.139Z,55.79
2019-04-05T21:13:58.923Z,55.33
2019-04-05T21:17:04.703Z,56.44
2019-04-05T21:20:10.675Z,56.34
2019-04-05T21:23:16.388Z,56.29
2019-04-05T21:26:22.068Z,56.64
2019-04-05T21:29:27.806Z,57.11
2019-04-05T21:32:33.522Z,56.74
2019-04-05T21:35:39.213Z,57.01
2019-04-05T21:38:44.954Z,58.03
2019-04-05T21:41:50.650Z,57.45
2019-04-05T21:44:56.444Z,56.69
2019-04-05T21:48:02.172Z,56.21
2019-04-05T21:51:07.904Z,57.49
2019-04-05T21:54:13.622Z,58.38
2019-04-05T21:57:19.303Z,58.83
2019-04-05T22:00:28.656Z,59.56
2019-04-05T22:03:36.033Z,59.76
2019-04-05T22:06:41.687Z,59.70
2019-04-05T22:09:47.350Z,59.26
2019-04-05T22:12:53.009Z,59.73
2019-04-05T22:15:58.695Z,59.31
2019-04-05T22:19:05.368Z,60.06
2019-04-05T22:22:11.080Z,60.67
2019-04-05T22:25:18.204Z,60.79
2019-04-05T22:28:23.874Z,60.28
2019-04-05T22:31:29.604Z,60.75
2019-04-05T22:34:35.329Z,60.69
2019-04-05T22:37:41.089Z,60.65
2019-04-05T22:40:46.793Z,60.29
2019-04-05T22:43:53.604Z,60.86
2019-04-05T22:46:59.309Z,60.76
2019-04-05T22:50:05.113Z,60.72
2019-04-05T22:53:10.859Z,62.08
2019-04-05T22:56:16.624Z,61.31
2019-04-05T22:59:22.303Z,60.60
2019-04-05T23:02:27.986Z,61.70
2019-04-05T23:05:33.889Z,60.49
2019-04-05T23:08:40.667Z,61.22
2019-04-05T23:11:46.439Z,61.41
2019-04-05T23:14:52.129Z,60.33
2019-04-05T23:17:57.857Z,60.51
2019-04-05T23:21:03.640Z,60.89
2019-04-05T23:24:09.323Z,60.75
2019-04-05T23:27:15.276Z,61.03
2019-04-05T23:30:22.684Z,60.53
2019-04-05T23:33:28.409Z,61.45
2019-04-05T23:36:34.140Z,61.20
2019-04-05T23:39:39.822Z,60.89
2019-04-05T23:42:45.545Z,62.22
2019-04-05T23:45:51.229Z,62.64
2019-04-05T23:48:56.962Z,62.68
2019-04-05T23:52:02.778Z,62.79
2019-04-05T23:55:08.766Z,63.66
2019-04-05T23:58:14.448Z,62.58
